sensor_id;sensor_type;location;lat;lon;timestamp;temperature;humidity
14061;DHT22;7105;43.616;1.434;2022-11-20T00:03:41;7.20;99.90
14061;DHT22;7105;43.616;1.434;2022-11-20T00:06:08;7.20;99.90
14061;DHT22;7105;43.616;1.434;2022-11-20T00:08:34;7.20;99.90
14061;DHT22;7105;43.616;1.434;2022-11-20T00:11:18;7.20;99.90
14061;DHT22;7105;43.616;1.434;2022-11-20T00:13:45;7.20;99.90
14061;DHT22;7105;43.616;1.434;2022-11-20T00:16:12;7.20;99.90
14061;DHT22;7105;43.616;1.434;2022-11-20T00:18:38;7.20;99.90
14061;DHT22;7105;43.616;1.434;2022-11-20T00:21:06;7.20;99.90
14061;DHT22;7105;43.616;1.434;2022-11-20T00:23:33;7.30;99.90
14061;DHT22;7105;43.616;1.434;2022-11-20T00:26:06;7.20;99.90
14061;DHT22;7105;43.616;1.434;2022-11-20T00:28:32;7.20;99.90
14061;DHT22;7105;43.616;1.434;2022-11-20T00:31:16;7.20;99.90
14061;DHT22;7105;43.616;1.434;2022-11-20T00:33:43;7.10;99.90
14061;DHT22;7105;43.616;1.434;2022-11-20T00:36:11;7.00;99.90
14061;DHT22;7105;43.616;1.434;2022-11-20T00:38:37;7.10;99.90
14061;DHT22;7105;43.616;1.434;2022-11-20T00:41:06;7.20;99.90
14061;DHT22;7105;43.616;1.434;2022-11-20T00:43:32;7.20;99.90
14061;DHT22;7105;43.616;1.434;2022-11-20T00:46:03;7.10;99.90
14061;DHT22;7105;43.616;1.434;2022-11-20T00:48:28;7.20;99.90
14061;DHT22;7105;43.616;1.434;2022-11-20T00:50:54;7.10;99.90
14061;DHT22;7105;43.616;1.434;2022-11-20T00:53:20;7.10;99.90
14061;DHT22;7105;43.616;1.434;2022-11-20T00:55:57;7.10;99.90
14061;DHT22;7105;43.616;1.434;2022-11-20T00:58:25;7.20;99.90
14061;DHT22;7105;43.616;1.434;2022-11-20T01:00:51;7.20;99.90
14061;DHT22;7105;43.616;1.434;2022-11-20T01:03:17;7.20;99.90
14061;DHT22;7105;43.616;1.434;2022-11-20T01:05:43;7.20;99.90
14061;DHT22;7105;43.616;1.434;2022-11-20T01:08:09;7.10;99.90
14061;DHT22;7105;43.616;1.434;2022-11-20T01:10:36;7.10;99.90
14061;DHT22;7105;43.616;1.434;2022-11-20T01:13:01;7.20;99.90
14061;DHT22;7105;43.616;1.434;2022-11-20T01:15:45;7.20;99.90
14061;DHT22;7105;43.616;1.434;2022-11-20T01:18:11;7.10;99.90
14061;DHT22;7105;43.616;1.434;2022-11-20T01:20:37;7.10;99.90
14061;DHT22;7105;43.616;1.434;2022-11-20T01:23:03;7.00;99.90
14061;DHT22;7105;43.616;1.434;2022-11-20T01:25:29;7.00;99.90
14061;DHT22;7105;43.616;1.434;2022-11-20T01:27:55;7.10;99.90
14061;DHT22;7105;43.616;1.434;2022-11-20T01:30:21;7.10;99.90
14061;DHT22;7105;43.616;1.434;2022-11-20T01:32:46;7.10;99.90
14061;DHT22;7105;43.616;1.434;2022-11-20T01:35:12;7.10;99.90
14061;DHT22;7105;43.616;1.434;2022-11-20T01:37:38;7.10;99.90
14061;DHT22;7105;43.616;1.434;2022-11-20T01:40:04;7.00;99.90
14061;DHT22;7105;43.616;1.434;2022-11-20T01:42:30;6.80;99.90
14061;DHT22;7105;43.616;1.434;2022-11-20T01:49:00;6.50;99.90
14061;DHT22;7105;43.616;1.434;2022-11-20T01:51:44;6.40;99.90
14061;DHT22;7105;43.616;1.434;2022-11-20T01:54:25;6.40;99.90
14061;DHT22;7105;43.616;1.434;2022-11-20T01:56:55;6.40;99.90
14061;DHT22;7105;43.616;1.434;2022-11-20T01:59:24;6.30;99.90
14061;DHT22;7105;43.616;1.434;2022-11-20T02:01:51;6.20;99.90
14061;DHT22;7105;43.616;1.434;2022-11-20T02:04:18;6.20;99.90
14061;DHT22;7105;43.616;1.434;2022-11-20T02:06:47;6.20;99.90
14061;DHT22;7105;43.616;1.434;2022-11-20T02:09:15;6.10;99.90
14061;DHT22;7105;43.616;1.434;2022-11-20T02:11:41;6.10;99.90
14061;DHT22;7105;43.616;1.434;2022-11-20T02:14:06;6.00;99.90
14061;DHT22;7105;43.616;1.434;2022-11-20T02:16:36;6.00;99.90
14061;DHT22;7105;43.616;1.434;2022-11-20T02:19:09;6.00;99.90
14061;DHT22;7105;43.616;1.434;2022-11-20T02:22:21;6.00;99.90
14061;DHT22;7105;43.616;1.434;2022-11-20T02:24:22;6.00;99.90
14061;DHT22;7105;43.616;1.434;2022-11-20T02:29:26;5.90;99.90
14061;DHT22;7105;43.616;1.434;2022-11-20T02:31:55;5.90;99.90
14061;DHT22;7105;43.616;1.434;2022-11-20T02:34:21;5.80;99.90
14061;DHT22;7105;43.616;1.434;2022-11-20T02:36:48;5.80;99.90
14061;DHT22;7105;43.616;1.434;2022-11-20T02:39:15;5.90;99.90
14061;DHT22;7105;43.616;1.434;2022-11-20T02:41:42;5.80;99.90
14061;DHT22;7105;43.616;1.434;2022-11-20T02:44:08;5.90;99.90
14061;DHT22;7105;43.616;1.434;2022-11-20T02:46:34;6.00;99.90
14061;DHT22;7105;43.616;1.434;2022-11-20T02:49:04;6.00;99.90
14061;DHT22;7105;43.616;1.434;2022-11-20T02:51:31;6.00;99.90
14061;DHT22;7105;43.616;1.434;2022-11-20T02:53:57;6.00;99.90
14061;DHT22;7105;43.616;1.434;2022-11-20T02:56:23;5.90;99.90
14061;DHT22;7105;43.616;1.434;2022-11-20T02:58:48;5.80;99.90
14061;DHT22;7105;43.616;1.434;2022-11-20T03:01:14;5.90;99.90
14061;DHT22;7105;43.616;1.434;2022-11-20T03:03:40;5.80;99.90
14061;DHT22;7105;43.616;1.434;2022-11-20T03:06:06;5.80;99.90
14061;DHT22;7105;43.616;1.434;2022-11-20T03:08:32;5.80;99.90
14061;DHT22;7105;43.616;1.434;2022-11-20T03:11:02;5.90;99.90
14061;DHT22;7105;43.616;1.434;2022-11-20T03:13:28;5.80;99.90
14061;DHT22;7105;43.616;1.434;2022-11-20T03:15:54;5.70;99.90
14061;DHT22;7105;43.616;1.434;2022-11-20T03:18:20;5.70;99.90
14061;DHT22;7105;43.616;1.434;2022-11-20T03:20:45;5.60;99.90
14061;DHT22;7105;43.616;1.434;2022-11-20T03:23:11;5.70;99.90
14061;DHT22;7105;43.616;1.434;2022-11-20T03:25:37;5.60;99.90
14061;DHT22;7105;43.616;1.434;2022-11-20T03:28:02;5.60;99.90
14061;DHT22;7105;43.616;1.434;2022-11-20T03:30:28;5.60;99.90
14061;DHT22;7105;43.616;1.434;2022-11-20T03:32:54;5.60;99.90
14061;DHT22;7105;43.616;1.434;2022-11-20T03:35:20;5.60;99.90
14061;DHT22;7105;43.616;1.434;2022-11-20T03:37:45;5.50;99.90
14061;DHT22;7105;43.616;1.434;2022-11-20T03:40:11;5.50;99.90
14061;DHT22;7105;43.616;1.434;2022-11-20T03:42:37;5.60;99.90
14061;DHT22;7105;43.616;1.434;2022-11-20T03:45:16;5.50;99.90
14061;DHT22;7105;43.616;1.434;2022-11-20T03:47:43;5.50;99.90
14061;DHT22;7105;43.616;1.434;2022-11-20T03:50:10;5.50;99.90
14061;DHT22;7105;43.616;1.434;2022-11-20T03:52:37;5.50;99.90
14061;DHT22;7105;43.616;1.434;2022-11-20T03:55:04;5.40;99.90
14061;DHT22;7105;43.616;1.434;2022-11-20T03:57:30;5.40;99.90
14061;DHT22;7105;43.616;1.434;2022-11-20T03:59:56;5.40;99.90
14061;DHT22;7105;43.616;1.434;2022-11-20T04:02:21;5.40;99.90
14061;DHT22;7105;43.616;1.434;2022-11-20T04:04:47;5.40;99.90
14061;DHT22;7105;43.616;1.434;2022-11-20T04:07:12;5.30;99.90
14061;DHT22;7105;43.616;1.434;2022-11-20T04:09:38;5.30;99.90
14061;DHT22;7105;43.616;1.434;2022-11-20T04:12:04;5.30;99.90
14061;DHT22;7105;43.616;1.434;2022-11-20T04:14:30;5.30;99.90
14061;DHT22;7105;43.616;1.434;2022-11-20T04:16:55;5.30;99.90
14061;DHT22;7105;43.616;1.434;2022-11-20T04:19:21;5.20;99.90
14061;DHT22;7105;43.616;1.434;2022-11-20T04:21:47;5.20;99.90
14061;DHT22;7105;43.616;1.434;2022-11-20T04:24:13;5.20;99.90
14061;DHT22;7105;43.616;1.434;2022-11-20T04:26:38;5.10;99.90
14061;DHT22;7105;43.616;1.434;2022-11-20T04:29:04;5.20;99.90
14061;DHT22;7105;43.616;1.434;2022-11-20T04:31:33;5.10;99.90
14061;DHT22;7105;43.616;1.434;2022-11-20T04:34:03;5.20;99.90
14061;DHT22;7105;43.616;1.434;2022-11-20T04:36:30;5.10;99.90
14061;DHT22;7105;43.616;1.434;2022-11-20T04:39:01;5.10;99.90
14061;DHT22;7105;43.616;1.434;2022-11-20T04:41:32;5.00;99.90
14061;DHT22;7105;43.616;1.434;2022-11-20T04:44:00;5.10;99.90
14061;DHT22;7105;43.616;1.434;2022-11-20T04:46:33;5.10;99.90
14061;DHT22;7105;43.616;1.434;2022-11-20T04:48:59;5.30;99.90
14061;DHT22;7105;43.616;1.434;2022-11-20T04:51:26;5.20;99.90
14061;DHT22;7105;43.616;1.434;2022-11-20T04:53:51;5.20;99.90
14061;DHT22;7105;43.616;1.434;2022-11-20T04:56:17;5.20;99.90
14061;DHT22;7105;43.616;1.434;2022-11-20T04:58:43;5.20;99.90
14061;DHT22;7105;43.616;1.434;2022-11-20T05:01:17;5.20;99.90
14061;DHT22;7105;43.616;1.434;2022-11-20T05:03:44;5.20;99.90
14061;DHT22;7105;43.616;1.434;2022-11-20T05:06:13;5.30;99.90
14061;DHT22;7105;43.616;1.434;2022-11-20T05:08:39;5.40;99.90
14061;DHT22;7105;43.616;1.434;2022-11-20T05:11:11;5.40;99.90
14061;DHT22;7105;43.616;1.434;2022-11-20T05:13:37;5.40;99.90
14061;DHT22;7105;43.616;1.434;2022-11-20T05:16:08;5.30;99.90
14061;DHT22;7105;43.616;1.434;2022-11-20T05:18:35;5.40;99.90
14061;DHT22;7105;43.616;1.434;2022-11-20T05:21:01;5.30;99.90
14061;DHT22;7105;43.616;1.434;2022-11-20T05:23:29;5.40;99.90
14061;DHT22;7105;43.616;1.434;2022-11-20T05:25:55;5.40;99.90
14061;DHT22;7105;43.616;1.434;2022-11-20T05:28:22;5.30;99.90
14061;DHT22;7105;43.616;1.434;2022-11-20T05:30:48;5.30;99.90
14061;DHT22;7105;43.616;1.434;2022-11-20T05:33:14;5.30;99.90
14061;DHT22;7105;43.616;1.434;2022-11-20T05:35:40;5.30;99.90
14061;DHT22;7105;43.616;1.434;2022-11-20T05:38:05;5.30;99.90
14061;DHT22;7105;43.616;1.434;2022-11-20T05:40:31;5.20;99.90
14061;DHT22;7105;43.616;1.434;2022-11-20T05:42:57;5.20;99.90
14061;DHT22;7105;43.616;1.434;2022-11-20T05:45:22;5.20;99.90
14061;DHT22;7105;43.616;1.434;2022-11-20T05:47:48;5.20;99.90
14061;DHT22;7105;43.616;1.434;2022-11-20T05:50:14;5.20;99.90
14061;DHT22;7105;43.616;1.434;2022-11-20T05:52:40;5.20;99.90
14061;DHT22;7105;43.616;1.434;2022-11-20T05:55:06;5.20;99.90
14061;DHT22;7105;43.616;1.434;2022-11-20T05:57:32;5.10;99.90
14061;DHT22;7105;43.616;1.434;2022-11-20T05:59:57;5.10;99.90
14061;DHT22;7105;43.616;1.434;2022-11-20T06:02:23;5.00;99.90
14061;DHT22;7105;43.616;1.434;2022-11-20T06:04:49;4.90;99.90
14061;DHT22;7105;43.616;1.434;2022-11-20T06:07:15;4.80;99.90
14061;DHT22;7105;43.616;1.434;2022-11-20T06:09:40;4.70;99.90
14061;DHT22;7105;43.616;1.434;2022-11-20T06:12:06;4.60;99.90
14061;DHT22;7105;43.616;1.434;2022-11-20T06:14:32;4.60;99.90
14061;DHT22;7105;43.616;1.434;2022-11-20T06:16:58;4.70;99.90
14061;DHT22;7105;43.616;1.434;2022-11-20T06:19:24;4.70;99.90
14061;DHT22;7105;43.616;1.434;2022-11-20T06:21:50;4.80;99.90
14061;DHT22;7105;43.616;1.434;2022-11-20T06:24:16;4.80;99.90
14061;DHT22;7105;43.616;1.434;2022-11-20T06:26:42;4.80;99.90
14061;DHT22;7105;43.616;1.434;2022-11-20T06:29:07;4.70;99.90
14061;DHT22;7105;43.616;1.434;2022-11-20T06:31:33;4.70;99.90
14061;DHT22;7105;43.616;1.434;2022-11-20T06:34:05;4.80;99.90
14061;DHT22;7105;43.616;1.434;2022-11-20T06:36:32;4.90;99.90
14061;DHT22;7105;43.616;1.434;2022-11-20T06:38:57;5.00;99.90
14061;DHT22;7105;43.616;1.434;2022-11-20T06:41:23;5.00;99.90
14061;DHT22;7105;43.616;1.434;2022-11-20T06:43:49;5.00;99.90
14061;DHT22;7105;43.616;1.434;2022-11-20T06:46:16;5.00;99.90
14061;DHT22;7105;43.616;1.434;2022-11-20T06:48:46;5.00;99.90
14061;DHT22;7105;43.616;1.434;2022-11-20T06:51:12;4.90;99.90
14061;DHT22;7105;43.616;1.434;2022-11-20T06:53:39;5.00;99.90
14061;DHT22;7105;43.616;1.434;2022-11-20T06:56:06;5.00;99.90
14061;DHT22;7105;43.616;1.434;2022-11-20T06:58:33;5.00;99.90
14061;DHT22;7105;43.616;1.434;2022-11-20T07:01:20;4.90;99.90
14061;DHT22;7105;43.616;1.434;2022-11-20T07:03:48;5.00;99.90
14061;DHT22;7105;43.616;1.434;2022-11-20T07:06:13;5.00;99.90
14061;DHT22;7105;43.616;1.434;2022-11-20T07:08:39;5.00;99.90
14061;DHT22;7105;43.616;1.434;2022-11-20T07:11:06;5.10;99.90
14061;DHT22;7105;43.616;1.434;2022-11-20T07:13:32;5.10;99.90
14061;DHT22;7105;43.616;1.434;2022-11-20T07:16:06;5.10;99.90
14061;DHT22;7105;43.616;1.434;2022-11-20T07:18:32;5.10;99.90
14061;DHT22;7105;43.616;1.434;2022-11-20T07:21:05;5.20;99.90
14061;DHT22;7105;43.616;1.434;2022-11-20T07:23:31;5.30;99.90
14061;DHT22;7105;43.616;1.434;2022-11-20T07:25:57;5.30;99.90
14061;DHT22;7105;43.616;1.434;2022-11-20T07:28:23;5.40;99.90
14061;DHT22;7105;43.616;1.434;2022-11-20T07:30:50;5.50;99.90
14061;DHT22;7105;43.616;1.434;2022-11-20T07:33:16;5.60;99.90
14061;DHT22;7105;43.616;1.434;2022-11-20T07:35:42;5.50;99.90
14061;DHT22;7105;43.616;1.434;2022-11-20T07:38:07;5.60;99.90
14061;DHT22;7105;43.616;1.434;2022-11-20T07:40:33;5.70;99.90
14061;DHT22;7105;43.616;1.434;2022-11-20T07:42:59;5.60;99.90
14061;DHT22;7105;43.616;1.434;2022-11-20T07:45:24;5.70;99.90
14061;DHT22;7105;43.616;1.434;2022-11-20T07:47:50;5.50;99.90
14061;DHT22;7105;43.616;1.434;2022-11-20T07:50:16;5.60;99.90
14061;DHT22;7105;43.616;1.434;2022-11-20T07:52:42;5.70;99.90
14061;DHT22;7105;43.616;1.434;2022-11-20T07:55:08;5.80;99.90
14061;DHT22;7105;43.616;1.434;2022-11-20T07:57:34;6.20;99.90
14061;DHT22;7105;43.616;1.434;2022-11-20T08:00:00;6.40;99.90
14061;DHT22;7105;43.616;1.434;2022-11-20T08:02:26;6.60;99.90
14061;DHT22;7105;43.616;1.434;2022-11-20T08:04:51;7.00;99.90
14061;DHT22;7105;43.616;1.434;2022-11-20T08:07:17;7.20;99.90
14061;DHT22;7105;43.616;1.434;2022-11-20T08:09:43;6.80;99.90
14061;DHT22;7105;43.616;1.434;2022-11-20T08:12:16;6.70;99.90
14061;DHT22;7105;43.616;1.434;2022-11-20T08:15:01;6.80;99.90
14061;DHT22;7105;43.616;1.434;2022-11-20T08:17:27;6.60;99.90
14061;DHT22;7105;43.616;1.434;2022-11-20T08:19:52;6.40;99.90
14061;DHT22;7105;43.616;1.434;2022-11-20T08:22:18;6.30;99.90
14061;DHT22;7105;43.616;1.434;2022-11-20T08:24:44;6.30;99.90
14061;DHT22;7105;43.616;1.434;2022-11-20T08:27:09;6.20;99.90
14061;DHT22;7105;43.616;1.434;2022-11-20T08:29:35;6.40;99.90
14061;DHT22;7105;43.616;1.434;2022-11-20T08:32:00;6.70;99.90
14061;DHT22;7105;43.616;1.434;2022-11-20T08:34:26;6.90;99.90
14061;DHT22;7105;43.616;1.434;2022-11-20T08:36:52;7.20;99.90
14061;DHT22;7105;43.616;1.434;2022-11-20T08:39:17;7.60;99.90
14061;DHT22;7105;43.616;1.434;2022-11-20T08:41:43;7.80;99.90
14061;DHT22;7105;43.616;1.434;2022-11-20T08:44:09;8.20;99.90
14061;DHT22;7105;43.616;1.434;2022-11-20T08:46:39;7.70;99.90
14061;DHT22;7105;43.616;1.434;2022-11-20T08:49:08;7.50;99.90
14061;DHT22;7105;43.616;1.434;2022-11-20T08:51:34;8.40;99.90
14061;DHT22;7105;43.616;1.434;2022-11-20T08:54:00;10.50;99.90
14061;DHT22;7105;43.616;1.434;2022-11-20T08:56:25;10.70;99.90
14061;DHT22;7105;43.616;1.434;2022-11-20T08:58:51;13.50;99.90
14061;DHT22;7105;43.616;1.434;2022-11-20T09:01:20;11.20;99.90
14061;DHT22;7105;43.616;1.434;2022-11-20T09:03:46;10.10;99.90
14061;DHT22;7105;43.616;1.434;2022-11-20T09:06:12;9.00;99.90
14061;DHT22;7105;43.616;1.434;2022-11-20T09:08:38;8.90;99.90
14061;DHT22;7105;43.616;1.434;2022-11-20T09:11:04;8.50;99.90
14061;DHT22;7105;43.616;1.434;2022-11-20T09:13:32;8.80;99.90
14061;DHT22;7105;43.616;1.434;2022-11-20T09:16:03;9.00;99.90
14061;DHT22;7105;43.616;1.434;2022-11-20T09:18:30;8.30;99.90
14061;DHT22;7105;43.616;1.434;2022-11-20T09:21:01;8.00;99.90
14061;DHT22;7105;43.616;1.434;2022-11-20T09:23:30;8.00;99.90
14061;DHT22;7105;43.616;1.434;2022-11-20T09:25:56;7.90;99.90
14061;DHT22;7105;43.616;1.434;2022-11-20T09:28:25;8.20;99.90
14061;DHT22;7105;43.616;1.434;2022-11-20T09:30:51;8.10;99.90
14061;DHT22;7105;43.616;1.434;2022-11-20T09:33:17;8.20;99.90
14061;DHT22;7105;43.616;1.434;2022-11-20T09:35:44;8.30;99.90
14061;DHT22;7105;43.616;1.434;2022-11-20T09:38:10;8.30;99.90
14061;DHT22;7105;43.616;1.434;2022-11-20T09:40:40;8.40;99.90
14061;DHT22;7105;43.616;1.434;2022-11-20T09:43:13;8.00;99.90
14061;DHT22;7105;43.616;1.434;2022-11-20T09:46:04;8.00;99.90
14061;DHT22;7105;43.616;1.434;2022-11-20T09:51:25;7.90;99.90
14061;DHT22;7105;43.616;1.434;2022-11-20T09:56:19;7.80;99.90
14061;DHT22;7105;43.616;1.434;2022-11-20T09:58:49;8.00;99.90
14061;DHT22;7105;43.616;1.434;2022-11-20T10:01:19;7.90;99.90
14061;DHT22;7105;43.616;1.434;2022-11-20T10:09:36;7.90;99.90
14061;DHT22;7105;43.616;1.434;2022-11-20T10:12:38;7.90;99.90
14061;DHT22;7105;43.616;1.434;2022-11-20T10:18:01;8.00;99.90
14061;DHT22;7105;43.616;1.434;2022-11-20T10:26:26;8.10;99.90
14061;DHT22;7105;43.616;1.434;2022-11-20T10:29:09;8.20;99.90
14061;DHT22;7105;43.616;1.434;2022-11-20T10:31:38;8.20;99.90
14061;DHT22;7105;43.616;1.434;2022-11-20T10:36:54;8.40;99.90
14061;DHT22;7105;43.616;1.434;2022-11-20T10:39:35;8.30;99.90
14061;DHT22;7105;43.616;1.434;2022-11-20T10:42:11;8.30;99.90
14061;DHT22;7105;43.616;1.434;2022-11-20T10:44:40;8.30;99.90
14061;DHT22;7105;43.616;1.434;2022-11-20T10:47:28;8.50;99.90
14061;DHT22;7105;43.616;1.434;2022-11-20T10:49:58;8.50;99.90
14061;DHT22;7105;43.616;1.434;2022-11-20T10:58:08;8.90;99.90
14061;DHT22;7105;43.616;1.434;2022-11-20T11:00:35;9.20;99.90
14061;DHT22;7105;43.616;1.434;2022-11-20T11:03:01;9.30;99.90
14061;DHT22;7105;43.616;1.434;2022-11-20T11:05:49;9.20;99.90
14061;DHT22;7105;43.616;1.434;2022-11-20T11:08:18;9.20;99.90
14061;DHT22;7105;43.616;1.434;2022-11-20T11:11:00;9.30;99.90
14061;DHT22;7105;43.616;1.434;2022-11-20T11:13:31;9.30;99.90
14061;DHT22;7105;43.616;1.434;2022-11-20T11:15:57;9.30;99.90
14061;DHT22;7105;43.616;1.434;2022-11-20T11:20:54;9.70;99.90
14061;DHT22;7105;43.616;1.434;2022-11-20T11:23:46;10.00;99.90
14061;DHT22;7105;43.616;1.434;2022-11-20T11:26:23;10.10;99.90
14061;DHT22;7105;43.616;1.434;2022-11-20T11:29:05;10.50;99.90
14061;DHT22;7105;43.616;1.434;2022-11-20T11:31:33;11.00;99.90
14061;DHT22;7105;43.616;1.434;2022-11-20T11:34:28;11.00;99.90
14061;DHT22;7105;43.616;1.434;2022-11-20T11:36:56;10.80;99.90
14061;DHT22;7105;43.616;1.434;2022-11-20T11:39:27;10.50;99.90
14061;DHT22;7105;43.616;1.434;2022-11-20T11:41:54;10.40;99.90
14061;DHT22;7105;43.616;1.434;2022-11-20T11:47:26;11.10;99.90
14061;DHT22;7105;43.616;1.434;2022-11-20T11:52:28;11.60;99.90
14061;DHT22;7105;43.616;1.434;2022-11-20T11:55:02;11.60;99.90
14061;DHT22;7105;43.616;1.434;2022-11-20T11:57:49;11.60;99.90
14061;DHT22;7105;43.616;1.434;2022-11-20T12:00:19;11.80;99.90
14061;DHT22;7105;43.616;1.434;2022-11-20T12:10:21;11.90;99.90
14061;DHT22;7105;43.616;1.434;2022-11-20T12:12:58;11.80;99.90
14061;DHT22;7105;43.616;1.434;2022-11-20T12:15:30;12.00;99.90
14061;DHT22;7105;43.616;1.434;2022-11-20T12:17:56;12.20;99.90
14061;DHT22;7105;43.616;1.434;2022-11-20T12:20:29;12.00;99.90
14061;DHT22;7105;43.616;1.434;2022-11-20T12:25:35;12.10;99.90
14061;DHT22;7105;43.616;1.434;2022-11-20T12:30:54;12.40;99.90
14061;DHT22;7105;43.616;1.434;2022-11-20T12:33:51;12.40;99.90
14061;DHT22;7105;43.616;1.434;2022-11-20T12:36:44;12.30;99.90
14061;DHT22;7105;43.616;1.434;2022-11-20T12:39:34;12.40;99.90
14061;DHT22;7105;43.616;1.434;2022-11-20T12:48:33;12.60;99.90
14061;DHT22;7105;43.616;1.434;2022-11-20T13:02:09;12.30;99.90
14061;DHT22;7105;43.616;1.434;2022-11-20T13:07:24;12.10;99.90
14061;DHT22;7105;43.616;1.434;2022-11-20T13:09:53;11.80;99.90
14061;DHT22;7105;43.616;1.434;2022-11-20T13:12:29;11.50;99.90
14061;DHT22;7105;43.616;1.434;2022-11-20T13:15:20;11.40;99.90
14061;DHT22;7105;43.616;1.434;2022-11-20T13:18:09;11.20;99.90
14061;DHT22;7105;43.616;1.434;2022-11-20T13:20:36;11.10;99.90
14061;DHT22;7105;43.616;1.434;2022-11-20T13:23:06;11.10;99.90
14061;DHT22;7105;43.616;1.434;2022-11-20T13:25:34;10.90;99.90
14061;DHT22;7105;43.616;1.434;2022-11-20T13:30:51;10.80;99.90
14061;DHT22;7105;43.616;1.434;2022-11-20T13:33:31;10.90;99.90
14061;DHT22;7105;43.616;1.434;2022-11-20T13:36:07;10.90;99.90
14061;DHT22;7105;43.616;1.434;2022-11-20T13:38:53;10.80;99.90
14061;DHT22;7105;43.616;1.434;2022-11-20T13:46:43;11.10;99.90
14061;DHT22;7105;43.616;1.434;2022-11-20T13:51:50;11.20;99.90
14061;DHT22;7105;43.616;1.434;2022-11-20T13:54:27;11.20;99.90
14061;DHT22;7105;43.616;1.434;2022-11-20T13:57:30;11.20;99.90
14061;DHT22;7105;43.616;1.434;2022-11-20T14:00:22;11.20;99.90
14061;DHT22;7105;43.616;1.434;2022-11-20T14:03:18;11.20;99.90
14061;DHT22;7105;43.616;1.434;2022-11-20T14:06:03;11.40;99.90
14061;DHT22;7105;43.616;1.434;2022-11-20T14:08:37;11.70;99.90
14061;DHT22;7105;43.616;1.434;2022-11-20T14:11:28;12.00;99.90
14061;DHT22;7105;43.616;1.434;2022-11-20T14:16:27;12.20;99.90
14061;DHT22;7105;43.616;1.434;2022-11-20T14:18:53;12.20;99.90
14061;DHT22;7105;43.616;1.434;2022-11-20T14:21:28;12.10;99.90
14061;DHT22;7105;43.616;1.434;2022-11-20T14:24:10;12.20;99.90
14061;DHT22;7105;43.616;1.434;2022-11-20T14:26:38;12.30;99.90
14061;DHT22;7105;43.616;1.434;2022-11-20T14:29:15;12.30;99.90
14061;DHT22;7105;43.616;1.434;2022-11-20T14:31:42;12.40;99.90
14061;DHT22;7105;43.616;1.434;2022-11-20T14:34:28;12.40;99.90
14061;DHT22;7105;43.616;1.434;2022-11-20T14:36:59;12.50;99.90
14061;DHT22;7105;43.616;1.434;2022-11-20T14:39:31;12.60;99.90
14061;DHT22;7105;43.616;1.434;2022-11-20T14:41:57;12.60;99.90
14061;DHT22;7105;43.616;1.434;2022-11-20T14:44:32;12.60;99.90
14061;DHT22;7105;43.616;1.434;2022-11-20T14:47:00;12.60;99.90
14061;DHT22;7105;43.616;1.434;2022-11-20T14:49:29;12.70;99.90
14061;DHT22;7105;43.616;1.434;2022-11-20T14:52:20;12.90;99.90
14061;DHT22;7105;43.616;1.434;2022-11-20T14:54:49;12.90;99.90
14061;DHT22;7105;43.616;1.434;2022-11-20T14:57:32;12.90;99.90
14061;DHT22;7105;43.616;1.434;2022-11-20T15:02:48;13.00;99.90
14061;DHT22;7105;43.616;1.434;2022-11-20T15:05:15;12.90;99.90
14061;DHT22;7105;43.616;1.434;2022-11-20T15:07:43;12.90;99.90
14061;DHT22;7105;43.616;1.434;2022-11-20T15:10:31;12.80;99.90
14061;DHT22;7105;43.616;1.434;2022-11-20T15:13:02;12.80;99.90
14061;DHT22;7105;43.616;1.434;2022-11-20T15:15:45;12.80;99.90
14061;DHT22;7105;43.616;1.434;2022-11-20T15:18:27;12.80;99.90
14061;DHT22;7105;43.616;1.434;2022-11-20T15:20:55;12.80;99.90
14061;DHT22;7105;43.616;1.434;2022-11-20T15:23:21;12.80;99.90
14061;DHT22;7105;43.616;1.434;2022-11-20T15:25:48;12.80;99.90
14061;DHT22;7105;43.616;1.434;2022-11-20T15:28:30;12.80;99.90
14061;DHT22;7105;43.616;1.434;2022-11-20T15:30:56;12.80;99.90
14061;DHT22;7105;43.616;1.434;2022-11-20T15:33:22;12.80;99.90
14061;DHT22;7105;43.616;1.434;2022-11-20T15:35:47;12.70;99.90
14061;DHT22;7105;43.616;1.434;2022-11-20T15:38:14;12.70;99.90
14061;DHT22;7105;43.616;1.434;2022-11-20T15:40:39;12.70;99.90
14061;DHT22;7105;43.616;1.434;2022-11-20T15:43:05;12.70;99.90
14061;DHT22;7105;43.616;1.434;2022-11-20T15:45:53;12.70;99.90
14061;DHT22;7105;43.616;1.434;2022-11-20T15:48:24;13.00;99.90
14061;DHT22;7105;43.616;1.434;2022-11-20T15:51:03;12.80;99.90
14061;DHT22;7105;43.616;1.434;2022-11-20T15:53:29;12.70;99.90
14061;DHT22;7105;43.616;1.434;2022-11-20T15:55:55;12.70;99.90
14061;DHT22;7105;43.616;1.434;2022-11-20T15:58:21;12.60;99.90
14061;DHT22;7105;43.616;1.434;2022-11-20T16:00:48;12.60;99.90
14061;DHT22;7105;43.616;1.434;2022-11-20T16:03:15;12.70;99.90
14061;DHT22;7105;43.616;1.434;2022-11-20T16:05:41;12.60;99.90
14061;DHT22;7105;43.616;1.434;2022-11-20T16:08:07;12.50;99.90
14061;DHT22;7105;43.616;1.434;2022-11-20T16:10:33;12.50;99.90
14061;DHT22;7105;43.616;1.434;2022-11-20T16:12:58;12.50;99.90
14061;DHT22;7105;43.616;1.434;2022-11-20T16:15:45;12.40;99.90
14061;DHT22;7105;43.616;1.434;2022-11-20T16:18:18;12.40;99.90
14061;DHT22;7105;43.616;1.434;2022-11-20T16:20:52;12.30;99.90
14061;DHT22;7105;43.616;1.434;2022-11-20T16:23:19;12.30;99.90
14061;DHT22;7105;43.616;1.434;2022-11-20T16:25:46;12.30;99.90
14061;DHT22;7105;43.616;1.434;2022-11-20T16:28:12;12.30;99.90
14061;DHT22;7105;43.616;1.434;2022-11-20T16:30:38;12.40;99.90
14061;DHT22;7105;43.616;1.434;2022-11-20T16:33:08;12.40;99.90
14061;DHT22;7105;43.616;1.434;2022-11-20T16:35:35;12.50;99.90
14061;DHT22;7105;43.616;1.434;2022-11-20T16:38:00;12.60;99.90
14061;DHT22;7105;43.616;1.434;2022-11-20T16:40:26;12.50;99.90
14061;DHT22;7105;43.616;1.434;2022-11-20T16:42:52;12.50;99.90
14061;DHT22;7105;43.616;1.434;2022-11-20T16:45:18;12.50;99.90
14061;DHT22;7105;43.616;1.434;2022-11-20T16:47:44;12.50;99.90
14061;DHT22;7105;43.616;1.434;2022-11-20T16:50:10;12.50;99.90
14061;DHT22;7105;43.616;1.434;2022-11-20T16:52:35;12.50;99.90
14061;DHT22;7105;43.616;1.434;2022-11-20T16:55:01;12.60;99.90
14061;DHT22;7105;43.616;1.434;2022-11-20T16:57:28;12.50;99.90
14061;DHT22;7105;43.616;1.434;2022-11-20T16:59:54;12.50;99.90
14061;DHT22;7105;43.616;1.434;2022-11-20T17:02:20;12.50;99.90
14061;DHT22;7105;43.616;1.434;2022-11-20T17:04:46;12.40;99.90
14061;DHT22;7105;43.616;1.434;2022-11-20T17:07:12;12.40;99.90
14061;DHT22;7105;43.616;1.434;2022-11-20T17:09:38;12.40;99.90
14061;DHT22;7105;43.616;1.434;2022-11-20T17:12:04;12.40;99.90
14061;DHT22;7105;43.616;1.434;2022-11-20T17:14:30;12.40;99.90
14061;DHT22;7105;43.616;1.434;2022-11-20T17:16:56;12.40;99.90
14061;DHT22;7105;43.616;1.434;2022-11-20T17:19:22;12.40;99.90
14061;DHT22;7105;43.616;1.434;2022-11-20T17:21:48;12.40;99.90
14061;DHT22;7105;43.616;1.434;2022-11-20T17:24:14;12.40;99.90
14061;DHT22;7105;43.616;1.434;2022-11-20T17:26:43;12.30;99.90
14061;DHT22;7105;43.616;1.434;2022-11-20T17:29:10;12.40;99.90
14061;DHT22;7105;43.616;1.434;2022-11-20T17:31:36;12.30;99.90
14061;DHT22;7105;43.616;1.434;2022-11-20T17:34:06;12.40;99.90
14061;DHT22;7105;43.616;1.434;2022-11-20T17:36:32;12.30;99.90
14061;DHT22;7105;43.616;1.434;2022-11-20T17:38:58;12.10;99.90
14061;DHT22;7105;43.616;1.434;2022-11-20T17:41:26;12.00;99.90
14061;DHT22;7105;43.616;1.434;2022-11-20T17:43:57;11.90;99.90
14061;DHT22;7105;43.616;1.434;2022-11-20T17:46:28;11.80;99.90